Time;durP1;ratioP1;P1;durP2;ratioP2;P2;SDS_P1;SDS_P2;PMS_P1;PMS_P2;Temp;Humidity;BMP_temperature;BMP_pressure;BME280_temperature;BME280_humidity;BME280_pressure;Samples;Min_cycle;Max_cycle;Signal;HPM_P1;HPM_P2
2022/03/17 00:01:11;;;;;;;38.20;24.37;;;8.00;99.90;;;;;;4974857;28;20507;-69
2022/03/17 00:03:38;;;;;;;42.57;24.40;;;8.00;99.90;;;;;;4986695;28;20455;-70
2022/03/17 00:06:07;;;;;;;42.57;25.27;;;7.90;99.90;;;;;;4992296;28;20482;-69
2022/03/17 00:08:33;;;;;;;45.17;25.23;;;7.90;99.90;;;;;;4987435;28;20509;-69
2022/03/17 00:11:00;;;;;;;42.93;24.17;;;7.90;99.90;;;;;;4994247;28;20521;-69
2022/03/17 00:13:27;;;;;;;49.73;24.87;;;7.90;99.90;;;;;;4993087;28;20493;-69
2022/03/17 00:15:54;;;;;;;40.33;24.37;;;7.90;99.90;;;;;;4994104;28;20466;-70
2022/03/17 00:18:20;;;;;;;42.10;25.83;;;7.90;99.90;;;;;;4993739;28;21113;-70
2022/03/17 00:20:47;;;;;;;43.27;26.37;;;7.90;99.90;;;;;;4993482;28;20451;-70
2022/03/17 00:23:15;;;;;;;39.27;25.00;;;7.90;99.90;;;;;;4974798;28;20507;-70
2022/03/17 00:25:42;;;;;;;48.13;24.40;;;7.90;99.90;;;;;;4974660;28;21008;-69
2022/03/17 00:28:08;;;;;;;43.20;24.93;;;7.90;99.90;;;;;;4974582;28;20626;-69
2022/03/17 00:30:35;;;;;;;42.90;26.43;;;7.90;99.90;;;;;;4974583;28;20452;-69
2022/03/17 00:33:02;;;;;;;47.10;26.27;;;7.90;99.90;;;;;;4973855;28;20530;-69
2022/03/17 00:35:38;;;;;;;45.40;26.53;;;7.90;99.90;;;;;;4985255;28;20514;-70
2022/03/17 00:38:07;;;;;;;47.87;28.07;;;7.90;99.90;;;;;;4978507;28;20475;-69
2022/03/17 00:40:36;;;;;;;42.67;24.90;;;7.90;99.90;;;;;;4974136;28;20460;-70
2022/03/17 00:43:03;;;;;;;50.70;27.70;;;7.80;99.90;;;;;;4974147;28;20531;-69
2022/03/17 00:45:30;;;;;;;41.97;24.60;;;7.90;99.90;;;;;;4973965;28;20460;-70
2022/03/17 00:47:57;;;;;;;49.43;26.57;;;7.80;99.90;;;;;;4978891;28;20476;-70
2022/03/17 00:50:24;;;;;;;50.93;26.17;;;7.80;99.90;;;;;;4990697;28;20459;-69
2022/03/17 00:52:52;;;;;;;45.47;26.80;;;7.80;99.90;;;;;;4993283;28;21077;-70
2022/03/17 00:55:19;;;;;;;44.27;26.83;;;7.90;99.90;;;;;;4992132;28;20532;-70
2022/03/17 00:57:48;;;;;;;42.40;26.00;;;7.90;99.90;;;;;;4973667;28;20482;-69
2022/03/17 01:00:16;;;;;;;46.20;26.27;;;7.80;99.90;;;;;;4979122;28;20468;-69
2022/03/17 01:02:44;;;;;;;43.60;25.97;;;7.90;99.90;;;;;;4973764;28;20499;-70
2022/03/17 01:05:11;;;;;;;49.43;28.20;;;7.80;99.90;;;;;;4973382;28;20452;-70
2022/03/17 01:07:38;;;;;;;43.00;25.90;;;7.80;99.90;;;;;;4973867;28;20845;-69
2022/03/17 01:10:05;;;;;;;49.00;27.90;;;7.80;99.90;;;;;;4973718;28;20454;-70
2022/03/17 01:12:33;;;;;;;44.73;27.37;;;7.80;99.90;;;;;;4984334;28;20487;-70
2022/03/17 01:15:01;;;;;;;47.77;28.40;;;7.80;99.90;;;;;;4992615;28;20513;-69
2022/03/17 01:17:28;;;;;;;55.87;28.33;;;7.80;99.90;;;;;;4992306;28;20537;-69
2022/03/17 01:19:55;;;;;;;44.43;27.60;;;7.70;99.90;;;;;;4993099;28;20451;-69
2022/03/17 01:22:23;;;;;;;45.87;28.47;;;7.80;99.90;;;;;;4992854;28;20451;-69
2022/03/17 01:24:51;;;;;;;46.07;26.77;;;7.70;99.90;;;;;;4985732;28;20459;-69
2022/03/17 01:27:20;;;;;;;51.17;27.87;;;7.70;99.90;;;;;;4974052;28;20849;-69
2022/03/17 01:29:47;;;;;;;46.40;27.20;;;7.70;99.90;;;;;;4988051;28;20523;-69
2022/03/17 01:32:15;;;;;;;42.90;26.73;;;7.70;99.90;;;;;;4972958;28;20888;-70
2022/03/17 01:34:42;;;;;;;50.93;27.70;;;7.60;99.90;;;;;;4972939;28;20511;-69
2022/03/17 01:37:08;;;;;;;47.97;27.70;;;7.60;99.90;;;;;;4972876;28;20480;-69
2022/03/17 01:39:35;;;;;;;50.90;29.67;;;7.50;99.90;;;;;;4973349;28;20468;-69
2022/03/17 01:42:05;;;;;;;52.60;28.10;;;7.50;99.90;;;;;;4976318;28;20936;-69
2022/03/17 01:44:32;;;;;;;53.37;28.40;;;7.50;99.90;;;;;;4979557;28;20488;-70
2022/03/17 01:49:45;;;;;;;48.37;29.80;;;7.40;99.90;;;;;;4972644;28;20459;-69
2022/03/17 01:52:13;;;;;;;49.40;29.00;;;7.40;99.90;;;;;;4972984;28;20981;-69
2022/03/17 01:54:41;;;;;;;45.93;27.97;;;7.50;99.90;;;;;;4972366;28;20833;-69
2022/03/17 01:57:09;;;;;;;46.70;27.77;;;7.50;99.90;;;;;;4976308;28;20474;-69
2022/03/17 01:59:37;;;;;;;46.73;28.57;;;7.40;99.90;;;;;;4985079;28;20459;-70
2022/03/17 02:02:05;;;;;;;50.67;28.93;;;7.40;99.90;;;;;;4971731;28;20452;-70
2022/03/17 02:04:33;;;;;;;49.17;28.03;;;7.50;99.90;;;;;;4972696;28;20468;-70
2022/03/17 02:07:03;;;;;;;47.50;27.90;;;7.50;99.90;;;;;;4972231;28;20495;-69
2022/03/17 02:09:30;;;;;;;49.23;29.23;;;7.50;99.90;;;;;;4972843;28;20460;-69
2022/03/17 02:14:49;;;;;;;53.07;29.40;;;7.40;99.90;;;;;;4972514;28;20824;-70
2022/03/17 02:17:15;;;;;;;52.63;29.63;;;7.40;99.90;;;;;;4988753;28;20474;-69
2022/03/17 02:19:42;;;;;;;48.87;29.80;;;7.50;99.90;;;;;;4992051;28;20455;-69
2022/03/17 02:22:12;;;;;;;50.57;30.83;;;7.50;99.90;;;;;;4989785;28;20455;-69
2022/03/17 02:27:28;;;;;;;54.33;31.07;;;7.50;99.90;;;;;;4972442;28;20561;-70
2022/03/17 02:29:54;;;;;;;53.27;31.27;;;7.50;99.90;;;;;;4972342;28;20514;-70
2022/03/17 02:32:21;;;;;;;57.07;31.23;;;7.50;99.90;;;;;;4981044;28;20851;-69
2022/03/17 02:34:48;;;;;;;55.63;31.33;;;7.50;99.90;;;;;;4985855;28;20460;-69
2022/03/17 02:37:15;;;;;;;55.97;32.07;;;7.50;99.90;;;;;;4971692;28;20476;-69
2022/03/17 02:39:43;;;;;;;57.70;32.23;;;7.50;99.90;;;;;;4972312;28;20484;-69
2022/03/17 02:42:11;;;;;;;49.47;29.20;;;7.50;99.90;;;;;;4971956;28;20468;-70
2022/03/17 02:44:38;;;;;;;50.33;30.73;;;7.50;99.90;;;;;;4952694;28;21024;-70
2022/03/17 02:47:05;;;;;;;56.27;31.43;;;7.50;99.90;;;;;;4964223;28;20508;-69
2022/03/17 02:49:32;;;;;;;60.40;33.17;;;7.50;99.90;;;;;;4971299;28;20484;-70
2022/03/17 02:51:59;;;;;;;55.70;32.13;;;7.50;99.90;;;;;;4972775;28;20472;-70
2022/03/17 02:54:26;;;;;;;63.53;33.40;;;7.50;99.90;;;;;;4971637;28;20448;-69
2022/03/17 02:56:54;;;;;;;59.70;33.60;;;7.50;99.90;;;;;;4971937;28;20479;-69
2022/03/17 02:59:20;;;;;;;59.70;33.40;;;7.50;99.90;;;;;;4971500;28;20888;-69
2022/03/17 03:01:47;;;;;;;57.03;32.83;;;7.50;99.90;;;;;;4971975;28;21007;-69
2022/03/17 03:04:16;;;;;;;57.80;33.60;;;7.50;99.90;;;;;;4974909;28;20448;-69
2022/03/17 03:06:43;;;;;;;55.80;31.47;;;7.40;99.90;;;;;;4971815;28;20487;-69
2022/03/17 03:09:10;;;;;;;59.63;32.43;;;7.40;99.90;;;;;;4971946;28;20496;-69
2022/03/17 03:11:37;;;;;;;58.00;33.57;;;7.50;99.90;;;;;;4972031;28;20506;-69
2022/03/17 03:14:07;;;;;;;62.67;33.00;;;7.40;99.90;;;;;;4975081;28;20577;-69
2022/03/17 03:16:35;;;;;;;58.70;33.10;;;7.40;99.90;;;;;;4979220;28;20472;-69
2022/03/17 03:19:01;;;;;;;58.47;33.63;;;7.40;99.90;;;;;;4978377;28;20542;-70
2022/03/17 03:21:28;;;;;;;60.40;33.07;;;7.40;99.90;;;;;;4994640;28;20513;-69
2022/03/17 03:23:55;;;;;;;62.03;33.43;;;7.40;99.90;;;;;;4978014;28;20498;-70
2022/03/17 03:26:22;;;;;;;62.83;34.17;;;7.40;99.90;;;;;;4978271;28;20856;-70
2022/03/17 03:28:48;;;;;;;68.67;36.07;;;7.40;99.90;;;;;;4977803;28;21015;-70
2022/03/17 03:31:16;;;;;;;59.20;34.80;;;7.40;99.90;;;;;;4986249;28;20458;-70
2022/03/17 03:33:43;;;;;;;63.07;35.23;;;7.40;99.90;;;;;;4997012;28;20934;-70
2022/03/17 03:38:54;;;;;;;63.70;34.00;;;7.50;99.90;;;;;;4997645;28;20431;-69
2022/03/17 03:41:20;;;;;;;56.40;33.53;;;7.50;99.90;;;;;;4989217;28;20878;-69
2022/03/17 03:43:47;;;;;;;64.07;34.97;;;7.50;99.90;;;;;;4977810;28;20444;-69
2022/03/17 03:46:14;;;;;;;64.60;35.20;;;7.50;99.90;;;;;;4978053;28;20912;-69
2022/03/17 03:48:42;;;;;;;63.10;34.37;;;7.50;99.90;;;;;;4977899;28;20464;-69
2022/03/17 03:51:09;;;;;;;60.70;33.60;;;7.60;99.90;;;;;;4977920;28;20455;-69
2022/03/17 03:56:16;;;;;;;57.80;33.70;;;7.60;99.90;;;;;;4979277;28;20542;-69
2022/03/17 03:58:43;;;;;;;57.53;31.70;;;7.70;99.90;;;;;;4977420;28;20447;-69
2022/03/17 04:01:09;;;;;;;55.60;33.23;;;7.70;99.90;;;;;;4977755;28;20456;-70
2022/03/17 04:03:36;;;;;;;57.23;32.10;;;7.70;99.90;;;;;;4977760;28;20448;-70
2022/03/17 04:06:04;;;;;;;53.80;32.40;;;7.70;99.90;;;;;;4977373;28;20897;-70
2022/03/17 04:08:31;;;;;;;56.30;33.00;;;7.80;99.90;;;;;;4980208;28;20452;-69
2022/03/17 04:10:57;;;;;;;59.53;34.40;;;7.80;99.90;;;;;;4961972;28;20459;-70
2022/03/17 04:13:24;;;;;;;59.83;35.10;;;7.80;99.90;;;;;;4977368;28;20516;-69
2022/03/17 04:15:50;;;;;;;61.57;34.40;;;7.80;99.90;;;;;;4977727;28;20455;-70
2022/03/17 04:18:18;;;;;;;57.67;33.83;;;7.80;99.90;;;;;;4977248;28;20530;-70
2022/03/17 04:20:44;;;;;;;55.27;32.50;;;7.80;99.90;;;;;;4977467;28;20459;-70
2022/03/17 04:23:13;;;;;;;55.70;32.40;;;7.80;99.90;;;;;;4982487;28;20967;-70
2022/03/17 04:25:39;;;;;;;63.23;35.73;;;7.80;99.90;;;;;;4980973;28;20456;-69
2022/03/17 04:28:06;;;;;;;58.07;32.30;;;7.90;99.90;;;;;;4974497;28;20475;-69
2022/03/17 04:30:33;;;;;;;58.13;33.70;;;7.90;99.90;;;;;;4974397;28;20456;-70
2022/03/17 04:33:00;;;;;;;58.30;33.33;;;7.90;99.90;;;;;;4978125;28;20479;-70
2022/03/17 04:35:27;;;;;;;62.80;35.23;;;7.80;99.90;;;;;;4986159;28;20478;-69
2022/03/17 04:37:54;;;;;;;56.77;33.60;;;7.80;99.90;;;;;;4994113;28;20475;-69
2022/03/17 04:40:21;;;;;;;54.07;31.97;;;7.70;99.90;;;;;;4993514;28;21001;-70
2022/03/17 04:42:48;;;;;;;61.37;34.07;;;7.70;99.90;;;;;;4977636;28;20448;-69
2022/03/17 04:45:15;;;;;;;59.70;34.43;;;7.70;99.90;;;;;;4974263;28;20873;-70
2022/03/17 04:47:41;;;;;;;61.93;34.23;;;7.60;99.90;;;;;;4973804;28;20545;-70
2022/03/17 04:50:09;;;;;;;62.37;34.83;;;7.60;99.90;;;;;;4979169;28;20451;-69
2022/03/17 04:55:21;;;;;;;57.17;34.30;;;7.60;99.90;;;;;;4993259;28;20458;-69
2022/03/17 04:57:48;;;;;;;60.60;34.20;;;7.60;99.90;;;;;;4993477;28;20918;-69
2022/03/17 05:00:16;;;;;;;64.30;34.00;;;7.60;99.90;;;;;;4985268;28;20557;-70
2022/03/17 05:02:42;;;;;;;56.67;32.70;;;7.60;99.90;;;;;;4989768;28;21011;-70
2022/03/17 05:05:09;;;;;;;57.40;33.03;;;7.60;99.90;;;;;;4972751;28;20460;-70
2022/03/17 05:07:36;;;;;;;63.03;34.37;;;7.60;99.90;;;;;;4973716;28;21015;-70
2022/03/17 05:10:03;;;;;;;54.93;33.83;;;7.60;99.90;;;;;;4973869;28;20448;-69
2022/03/17 05:12:32;;;;;;;59.70;33.50;;;7.60;99.90;;;;;;4973573;28;20487;-69
2022/03/17 05:14:59;;;;;;;64.20;33.80;;;7.60;99.90;;;;;;4973533;28;20487;-69
2022/03/17 05:17:26;;;;;;;55.73;34.33;;;7.60;99.90;;;;;;4988345;28;20479;-70
2022/03/17 05:19:52;;;;;;;64.07;34.00;;;7.60;99.90;;;;;;4973656;28;20885;-70
2022/03/17 05:22:19;;;;;;;64.53;35.13;;;7.60;99.90;;;;;;4972801;28;20507;-70
2022/03/17 05:24:45;;;;;;;59.30;34.63;;;7.60;99.90;;;;;;4973198;28;20542;-70
2022/03/17 05:27:12;;;;;;;59.40;33.70;;;7.60;99.90;;;;;;4987391;28;20472;-70
2022/03/17 05:29:40;;;;;;;66.37;35.53;;;7.60;99.90;;;;;;4973265;28;20461;-70
2022/03/17 05:32:08;;;;;;;63.37;34.53;;;7.60;99.90;;;;;;4977149;28;20460;-70
2022/03/17 05:34:34;;;;;;;62.17;34.27;;;7.60;99.90;;;;;;4972511;28;20492;-70
2022/03/17 05:37:01;;;;;;;61.27;33.40;;;7.60;99.90;;;;;;4974686;28;20940;-70
2022/03/17 05:39:27;;;;;;;65.27;35.67;;;7.60;99.90;;;;;;4992276;28;20459;-70
2022/03/17 05:41:54;;;;;;;66.70;34.30;;;7.50;99.90;;;;;;4983648;28;20484;-70
2022/03/17 05:44:21;;;;;;;63.60;35.63;;;7.50;99.90;;;;;;4973065;28;20453;-70
2022/03/17 05:46:49;;;;;;;64.20;35.27;;;7.50;99.90;;;;;;4972866;28;20479;-70
2022/03/17 05:49:15;;;;;;;61.00;33.60;;;7.50;99.90;;;;;;4973157;28;20456;-70
2022/03/17 05:51:42;;;;;;;59.73;34.37;;;7.50;99.90;;;;;;4972621;28;20534;-70
2022/03/17 05:54:10;;;;;;;60.90;34.00;;;7.50;99.90;;;;;;4983214;28;20486;-69
2022/03/17 05:56:36;;;;;;;61.63;32.90;;;7.50;99.90;;;;;;4991857;28;20475;-70
2022/03/17 05:59:03;;;;;;;57.10;34.03;;;7.60;99.90;;;;;;4987113;28;20444;-70
2022/03/17 06:01:30;;;;;;;64.23;35.73;;;7.50;99.90;;;;;;4980857;28;20467;-70
2022/03/17 06:03:58;;;;;;;60.40;35.47;;;7.60;99.90;;;;;;4977833;28;20510;-70
2022/03/17 06:06:24;;;;;;;58.63;32.10;;;7.60;99.90;;;;;;4991355;28;20924;-70
2022/03/17 06:08:51;;;;;;;57.33;33.80;;;7.60;99.90;;;;;;4981424;28;20527;-70
2022/03/17 06:11:17;;;;;;;58.93;34.10;;;7.70;99.90;;;;;;4971895;28;20522;-70
2022/03/17 06:13:44;;;;;;;61.33;34.87;;;7.70;99.90;;;;;;4987276;28;20554;-70
2022/03/17 06:16:11;;;;;;;63.90;35.03;;;7.70;99.90;;;;;;4984990;28;20456;-70
2022/03/17 06:18:40;;;;;;;59.63;34.43;;;7.70;99.90;;;;;;4972238;28;20522;-70
2022/03/17 06:21:08;;;;;;;63.70;34.93;;;7.70;99.90;;;;;;4984872;28;20550;-70
2022/03/17 06:23:34;;;;;;;68.00;35.50;;;7.70;99.90;;;;;;4991400;28;20451;-71
2022/03/17 06:26:01;;;;;;;58.53;34.43;;;7.70;99.90;;;;;;4982643;28;20455;-70
2022/03/17 06:28:27;;;;;;;57.10;34.57;;;7.80;99.90;;;;;;4991598;28;20498;-70
2022/03/17 06:30:56;;;;;;;61.93;33.77;;;7.80;99.90;;;;;;4991105;28;20459;-70
2022/03/17 06:33:23;;;;;;;58.60;34.67;;;7.80;99.90;;;;;;4991553;28;20478;-70
2022/03/17 06:35:50;;;;;;;58.20;33.07;;;7.80;99.90;;;;;;4990032;28;20859;-70
2022/03/17 06:38:18;;;;;;;60.00;33.67;;;7.80;99.90;;;;;;4978889;28;20483;-70
2022/03/17 06:40:45;;;;;;;61.20;34.80;;;7.90;99.90;;;;;;4981480;28;20865;-70
2022/03/17 06:43:14;;;;;;;55.47;33.10;;;7.90;99.90;;;;;;4971845;28;20463;-70
2022/03/17 06:45:41;;;;;;;54.40;33.53;;;7.90;99.90;;;;;;4971794;28;20948;-70
2022/03/17 06:48:08;;;;;;;56.87;32.53;;;7.90;99.90;;;;;;4983467;28;20475;-70
2022/03/17 06:50:34;;;;;;;55.93;32.20;;;8.00;99.90;;;;;;4982924;28;20521;-70
2022/03/17 06:53:01;;;;;;;55.13;32.40;;;8.00;99.90;;;;;;4976846;28;20519;-70
2022/03/17 06:55:31;;;;;;;59.10;33.10;;;8.00;99.90;;;;;;4971684;28;20542;-70
2022/03/17 06:57:58;;;;;;;54.00;33.43;;;8.00;99.90;;;;;;4971651;28;20514;-70
2022/03/17 07:00:24;;;;;;;59.40;33.40;;;8.00;99.90;;;;;;4971944;28;20523;-71
2022/03/17 07:02:51;;;;;;;65.67;34.67;;;8.00;99.90;;;;;;4971732;28;20456;-70
2022/03/17 07:05:17;;;;;;;61.47;34.90;;;8.00;99.90;;;;;;4971563;28;20945;-71
2022/03/17 07:07:44;;;;;;;58.33;34.70;;;8.00;99.90;;;;;;4971696;28;20468;-71
2022/03/17 07:10:12;;;;;;;59.73;32.93;;;8.00;99.90;;;;;;4974478;28;20447;-71
2022/03/17 07:12:41;;;;;;;56.37;33.33;;;8.00;99.90;;;;;;4990053;28;20852;-71
2022/03/17 07:15:09;;;;;;;60.63;35.07;;;8.10;99.90;;;;;;4971802;28;20519;-71
2022/03/17 07:17:39;;;;;;;60.47;35.73;;;8.10;99.90;;;;;;4971799;28;20480;-71
2022/03/17 07:20:07;;;;;;;61.90;34.90;;;8.10;99.90;;;;;;4983573;28;20463;-71
2022/03/17 07:22:33;;;;;;;65.60;35.87;;;8.10;99.90;;;;;;4988248;28;20529;-71
2022/03/17 07:25:00;;;;;;;64.50;34.40;;;8.10;99.90;;;;;;4972265;28;20515;-71
2022/03/17 07:27:27;;;;;;;61.77;36.03;;;8.20;99.90;;;;;;4972796;28;20476;-71
2022/03/17 07:29:55;;;;;;;60.87;35.13;;;8.20;99.90;;;;;;4970976;28;20519;-71
2022/03/17 07:32:22;;;;;;;61.17;33.50;;;8.30;99.90;;;;;;4971587;28;20518;-71
2022/03/17 07:34:49;;;;;;;55.80;33.83;;;8.30;99.90;;;;;;4970667;28;20484;-71
2022/03/17 07:37:16;;;;;;;59.00;35.40;;;8.40;99.90;;;;;;4990053;28;21011;-71
2022/03/17 07:39:43;;;;;;;66.17;34.13;;;8.40;99.90;;;;;;4989728;28;20451;-71
2022/03/17 07:42:09;;;;;;;60.33;35.43;;;8.50;99.90;;;;;;4979618;28;20460;-71
2022/03/17 07:44:37;;;;;;;69.53;35.20;;;8.50;99.90;;;;;;4971348;28;20452;-71
2022/03/17 07:47:08;;;;;;;66.27;33.53;;;8.50;99.90;;;;;;4971188;28;20476;-71
2022/03/17 07:49:35;;;;;;;61.10;34.13;;;8.50;99.90;;;;;;4971441;28;20460;-71
2022/03/17 07:52:02;;;;;;;54.27;30.90;;;8.50;99.90;;;;;;4971068;28;21003;-71
2022/03/17 07:54:28;;;;;;;68.83;34.80;;;8.50;99.90;;;;;;4970799;28;20546;-71
2022/03/17 07:56:55;;;;;;;60.33;34.67;;;8.60;99.90;;;;;;4971210;28;20535;-72
2022/03/17 07:59:23;;;;;;;60.80;34.27;;;8.60;99.90;;;;;;4976975;28;20538;-71
2022/03/17 08:01:50;;;;;;;63.50;38.37;;;8.60;99.90;;;;;;4993116;28;20468;-71
2022/03/17 08:04:18;;;;;;;125.63;60.67;;;8.70;99.90;;;;;;4994440;28;20451;-71
2022/03/17 08:06:45;;;;;;;73.10;39.37;;;8.80;99.90;;;;;;4992335;28;20487;-70
2022/03/17 08:09:12;;;;;;;55.13;33.37;;;9.00;99.90;;;;;;4987770;28;20456;-71
2022/03/17 08:11:38;;;;;;;59.63;35.07;;;9.10;99.90;;;;;;4964539;28;20539;-71
2022/03/17 08:14:05;;;;;;;58.23;33.37;;;9.10;99.90;;;;;;4968269;28;21008;-71
2022/03/17 08:16:31;;;;;;;56.40;33.87;;;9.10;99.90;;;;;;4970216;28;20522;-71
2022/03/17 08:18:58;;;;;;;57.97;33.30;;;9.10;99.90;;;;;;4970083;28;21023;-71
2022/03/17 08:21:26;;;;;;;54.90;32.87;;;9.10;99.90;;;;;;4970163;28;20506;-71
2022/03/17 08:23:53;;;;;;;48.53;30.73;;;9.10;99.90;;;;;;4969962;28;20846;-70
2022/03/17 08:26:19;;;;;;;57.90;33.57;;;9.20;99.90;;;;;;4970574;28;20500;-70
2022/03/17 08:28:46;;;;;;;56.10;33.93;;;9.20;99.90;;;;;;4970883;28;20452;-70
2022/03/17 08:31:14;;;;;;;57.50;34.47;;;9.20;99.90;;;;;;4970407;28;20889;-71
2022/03/17 08:33:40;;;;;;;54.33;33.23;;;9.20;99.90;;;;;;4969971;28;20863;-71
2022/03/17 08:36:07;;;;;;;61.70;35.30;;;9.20;99.90;;;;;;4968530;28;20908;-71
2022/03/17 08:38:35;;;;;;;52.63;32.67;;;9.20;99.90;;;;;;4970190;28;20452;-71
2022/03/17 08:41:02;;;;;;;56.90;33.80;;;9.20;99.90;;;;;;4970618;28;20452;-71
2022/03/17 08:43:29;;;;;;;60.80;34.40;;;9.20;99.90;;;;;;4970126;28;20522;-71
2022/03/17 08:51:28;;;;;;;62.60;35.10;;;9.40;99.90;;;;;;4970215;28;20459;-71
2022/03/17 08:53:57;;;;;;;58.13;35.77;;;9.40;99.90;;;;;;4969967;28;20514;-71
2022/03/17 08:56:24;;;;;;;55.30;33.23;;;9.40;99.90;;;;;;4970278;28;20478;-71
2022/03/17 08:58:50;;;;;;;57.73;35.13;;;9.30;99.90;;;;;;4970236;28;20444;-71
2022/03/17 09:01:17;;;;;;;62.93;36.70;;;9.30;99.90;;;;;;4970187;28;20456;-71
2022/03/17 09:03:43;;;;;;;60.20;35.17;;;9.30;99.90;;;;;;4969846;28;20511;-71
2022/03/17 09:06:12;;;;;;;60.20;35.93;;;9.30;99.90;;;;;;4967860;28;20612;-71
2022/03/17 09:08:41;;;;;;;52.63;32.83;;;9.30;99.90;;;;;;4969262;28;20550;-71
2022/03/17 09:11:13;;;;;;;63.40;35.60;;;9.30;99.90;;;;;;4967028;28;20842;-71
2022/03/17 09:13:40;;;;;;;59.50;35.10;;;9.20;99.90;;;;;;4967098;28;20980;-71
2022/03/17 09:16:07;;;;;;;51.67;33.70;;;9.30;99.90;;;;;;4968294;28;20980;-71
2022/03/17 09:18:35;;;;;;;55.60;34.20;;;9.30;99.90;;;;;;4970259;28;20455;-71
2022/03/17 09:21:02;;;;;;;59.30;35.27;;;9.30;99.90;;;;;;4969280;28;20507;-71
2022/03/17 09:23:30;;;;;;;59.03;34.67;;;9.30;99.90;;;;;;4968976;28;20452;-72
2022/03/17 09:25:57;;;;;;;60.03;35.53;;;9.30;99.90;;;;;;4970183;28;20452;-71
2022/03/17 09:28:26;;;;;;;63.77;36.10;;;9.40;99.90;;;;;;4970110;28;20452;-71
2022/03/17 09:30:54;;;;;;;57.83;34.83;;;9.40;99.90;;;;;;4969586;28;20452;-71
2022/03/17 09:33:25;;;;;;;59.87;33.97;;;9.30;99.90;;;;;;4969589;28;20460;-71
2022/03/17 09:35:51;;;;;;;54.67;34.40;;;9.40;99.90;;;;;;4969227;28;20920;-71
2022/03/17 09:38:18;;;;;;;62.67;37.40;;;9.40;99.90;;;;;;4967702;28;20480;-71
2022/03/17 09:40:45;;;;;;;67.70;34.20;;;9.40;99.90;;;;;;4969462;28;20534;-71
2022/03/17 09:43:22;;;;;;;61.23;36.07;;;9.40;99.90;;;;;;4968854;28;20526;-71
2022/03/17 09:45:53;;;;;;;65.10;36.37;;;9.40;99.90;;;;;;4968641;28;20451;-71
2022/03/17 09:48:22;;;;;;;57.97;34.00;;;9.40;99.90;;;;;;4968674;28;20503;-71
2022/03/17 09:50:53;;;;;;;57.30;34.67;;;9.40;99.90;;;;;;4968215;28;20449;-71
2022/03/17 09:53:20;;;;;;;61.73;34.23;;;9.40;99.90;;;;;;4968234;28;20949;-71
2022/03/17 09:55:47;;;;;;;56.53;34.60;;;9.30;99.90;;;;;;4968986;28;20488;-71
2022/03/17 09:58:13;;;;;;;60.50;35.80;;;9.30;99.90;;;;;;4969026;28;20538;-71
2022/03/17 10:00:49;;;;;;;57.77;34.90;;;9.30;99.90;;;;;;4968915;28;21717;-71
2022/03/17 10:03:18;;;;;;;59.70;33.43;;;9.30;99.90;;;;;;4968319;28;20468;-71
2022/03/17 10:05:46;;;;;;;58.77;35.60;;;9.30;99.90;;;;;;4969327;28;20550;-71
2022/03/17 10:08:13;;;;;;;56.97;34.23;;;9.40;99.90;;;;;;4968409;28;20480;-71
2022/03/17 10:10:41;;;;;;;62.83;36.83;;;9.40;99.90;;;;;;4968893;28;20456;-71
2022/03/17 10:13:13;;;;;;;59.77;36.47;;;9.50;99.90;;;;;;4968489;28;20502;-71
2022/03/17 10:15:40;;;;;;;56.87;34.47;;;9.50;99.90;;;;;;4968750;28;20519;-71
2022/03/17 10:18:23;;;;;;;55.20;34.13;;;9.50;99.90;;;;;;4968852;28;20480;-71
2022/03/17 10:21:07;;;;;;;61.20;35.80;;;9.50;99.90;;;;;;4968395;28;20471;-71
2022/03/17 10:23:34;;;;;;;59.33;36.50;;;9.60;99.90;;;;;;4967509;28;20460;-71
2022/03/17 10:26:00;;;;;;;63.50;37.57;;;9.60;99.90;;;;;;4969199;28;20529;-71
2022/03/17 10:28:27;;;;;;;59.70;35.30;;;9.60;99.90;;;;;;4968826;28;20460;-71
2022/03/17 10:31:03;;;;;;;59.53;36.17;;;9.60;99.90;;;;;;4966588;28;20872;-71
2022/03/17 10:33:32;;;;;;;57.57;34.03;;;9.60;99.90;;;;;;4968422;28;20455;-71
2022/03/17 10:36:19;;;;;;;66.13;36.60;;;9.50;99.90;;;;;;4969169;28;20483;-71
2022/03/17 10:38:46;;;;;;;55.70;34.53;;;9.50;99.90;;;;;;4968791;28;20551;-71
2022/03/17 10:41:40;;;;;;;56.70;34.80;;;9.60;99.90;;;;;;4967143;28;20853;-71
2022/03/17 10:44:12;;;;;;;58.30;35.40;;;9.70;99.90;;;;;;4968278;28;20452;-71
2022/03/17 10:46:39;;;;;;;58.57;35.43;;;9.60;99.90;;;;;;4968840;28;20863;-71
2022/03/17 10:49:08;;;;;;;58.10;36.00;;;9.60;99.90;;;;;;4968665;28;20486;-70
2022/03/17 10:51:37;;;;;;;68.07;37.77;;;9.60;99.90;;;;;;4967357;28;20451;-71
2022/03/17 10:54:09;;;;;;;64.20;38.00;;;9.60;99.90;;;;;;4967024;28;20539;-71
2022/03/17 10:56:37;;;;;;;63.33;38.90;;;9.70;99.90;;;;;;4967826;28;20519;-70
2022/03/17 10:59:05;;;;;;;59.30;38.37;;;9.70;99.90;;;;;;4967736;28;20460;-70
2022/03/17 11:01:39;;;;;;;69.50;39.87;;;9.70;99.90;;;;;;4967905;28;20444;-70
2022/03/17 11:04:07;;;;;;;67.67;39.57;;;9.70;99.90;;;;;;4967553;28;20455;-70
2022/03/17 11:06:35;;;;;;;67.83;40.23;;;9.80;99.90;;;;;;4967242;28;20530;-70
2022/03/17 11:09:02;;;;;;;56.37;33.47;;;9.70;99.90;;;;;;4968108;28;20448;-71
2022/03/17 11:11:29;;;;;;;62.07;35.97;;;9.70;99.90;;;;;;4967830;28;20452;-70
2022/03/17 11:13:57;;;;;;;59.50;35.50;;;9.60;99.90;;;;;;4967230;28;20452;-71
2022/03/17 11:16:30;;;;;;;61.50;34.87;;;9.60;99.90;;;;;;4967658;28;21004;-71
2022/03/17 11:18:58;;;;;;;51.50;31.57;;;9.50;99.90;;;;;;4967864;28;20444;-71
2022/03/17 11:21:29;;;;;;;50.10;29.97;;;9.60;99.90;;;;;;4967941;28;20456;-71
2022/03/17 11:24:01;;;;;;;55.93;33.07;;;9.50;99.90;;;;;;4967927;28;20463;-71
2022/03/17 11:26:35;;;;;;;53.97;30.57;;;9.50;99.90;;;;;;4968181;28;20479;-71
2022/03/17 11:29:09;;;;;;;50.70;29.87;;;9.50;99.90;;;;;;4967798;28;21019;-71
2022/03/17 11:32:00;;;;;;;58.53;31.30;;;9.40;99.90;;;;;;4967979;28;20451;-71
2022/03/17 11:34:46;;;;;;;50.90;30.17;;;9.40;99.90;;;;;;4968169;28;20467;-71
2022/03/17 11:37:24;;;;;;;52.80;30.20;;;9.30;99.90;;;;;;4970081;28;20480;-71
2022/03/17 11:39:52;;;;;;;51.10;27.53;;;9.30;99.90;;;;;;4971817;28;20471;-71
2022/03/17 11:42:30;;;;;;;49.77;27.30;;;9.30;99.90;;;;;;4971649;28;20842;-71
2022/03/17 11:45:03;;;;;;;53.07;29.23;;;9.20;99.90;;;;;;4971476;28;20510;-71
2022/03/17 11:47:36;;;;;;;48.63;27.10;;;9.10;99.90;;;;;;4970142;28;20459;-71
2022/03/17 11:50:22;;;;;;;42.03;25.27;;;9.10;99.90;;;;;;4971701;28;20448;-71
2022/03/17 11:52:53;;;;;;;42.47;22.23;;;9.10;99.90;;;;;;4971127;28;20931;-71
2022/03/17 11:55:35;;;;;;;41.87;21.67;;;9.00;99.90;;;;;;4970923;28;20492;-71
2022/03/17 11:58:22;;;;;;;41.13;20.50;;;9.00;99.90;;;;;;4971508;28;20980;-71
2022/03/17 12:00:52;;;;;;;34.80;18.93;;;9.00;99.90;;;;;;4970700;28;20510;-71
2022/03/17 12:03:28;;;;;;;38.97;19.20;;;9.00;99.90;;;;;;4970683;28;20500;-71
2022/03/17 12:06:14;;;;;;;30.67;17.60;;;9.00;99.90;;;;;;4971831;28;20456;-70
2022/03/17 12:08:50;;;;;;;33.97;17.87;;;8.90;99.90;;;;;;4970638;28;20953;-69
2022/03/17 12:11:18;;;;;;;32.13;18.07;;;8.90;99.90;;;;;;4970994;28;20540;-70
2022/03/17 12:14:16;;;;;;;28.87;16.33;;;8.80;99.90;;;;;;4968932;28;20459;-70
2022/03/17 12:16:44;;;;;;;25.30;15.30;;;8.80;99.90;;;;;;4970159;28;20550;-70
2022/03/17 12:19:24;;;;;;;22.70;12.67;;;8.80;99.90;;;;;;4969425;28;20456;-70
2022/03/17 12:22:14;;;;;;;24.57;11.90;;;8.70;99.90;;;;;;4970501;28;20468;-70
2022/03/17 12:24:48;;;;;;;25.00;11.37;;;8.70;99.90;;;;;;4968690;28;20464;-69
2022/03/17 12:27:22;;;;;;;16.10;10.77;;;8.70;99.90;;;;;;4970457;28;21015;-69
2022/03/17 12:29:50;;;;;;;20.40;11.40;;;8.70;99.90;;;;;;4970932;28;20462;-69
2022/03/17 12:32:18;;;;;;;19.40;11.03;;;8.60;99.90;;;;;;4970468;28;20519;-70
2022/03/17 12:34:47;;;;;;;15.47;10.60;;;8.60;99.90;;;;;;4971057;28;20451;-70
2022/03/17 12:37:15;;;;;;;15.60;10.20;;;8.60;99.90;;;;;;4969691;28;20491;-70
2022/03/17 12:39:42;;;;;;;16.40;10.50;;;8.60;99.90;;;;;;4969560;28;20468;-70
2022/03/17 12:42:19;;;;;;;18.00;11.10;;;8.60;99.90;;;;;;4970160;28;20507;-70
2022/03/17 12:44:53;;;;;;;16.97;10.10;;;8.60;99.90;;;;;;4969819;28;20530;-70
2022/03/17 12:47:22;;;;;;;18.27;10.87;;;8.60;99.90;;;;;;4968116;28;20980;-70
2022/03/17 12:49:49;;;;;;;20.73;11.13;;;8.50;99.90;;;;;;4970537;28;20452;-70
2022/03/17 12:52:20;;;;;;;14.77;9.93;;;8.60;99.90;;;;;;4969963;28;20515;-70
2022/03/17 12:54:47;;;;;;;22.00;10.47;;;8.60;99.90;;;;;;4968404;28;20563;-70
2022/03/17 12:57:14;;;;;;;17.97;10.60;;;8.50;99.90;;;;;;4969252;28;21064;-70
2022/03/17 12:59:42;;;;;;;20.30;11.17;;;8.50;99.90;;;;;;4969749;28;20459;-70
2022/03/17 13:02:09;;;;;;;18.27;11.20;;;8.60;99.90;;;;;;4969799;28;21101;-70
2022/03/17 13:04:37;;;;;;;19.70;12.37;;;8.60;99.90;;;;;;4970234;28;20479;-70